Terminal Aerodrome Forecast
Issued by NWS Flagstaff, AZ

Home | Current Version | Previous Version | Text Only | Print | Product List | Glossary On
Versions: 1 2 3 4 5 6 7 8 9 10 11 12 13 14
000
FTUS45 KFGZ 262004 AAA
TAFINW
TAF AMD
KINW 262004Z 2620/2718 21013G23KT P6SM FEW050 BKN070
     FM270100 20010KT P6SM SCT070
     FM270800 20014G25KT P6SM FEW030 BKN200=

USA.gov is the U.S. government's official web portal to all federal, state and local government web resources and services.